Aérodrome :
LOGIN :

S'inscrire | Disclaimer

   EN    FR    IT 

 










Légende :    VFR   VFR Marginal   IFR   IFR Intensif   IFR Très Intensif
Visi : 
Plafond : 
>= 8 km
>= 3000ft
5 à 8 km
1000 à 3000 ft
1500m à 5 km
500 à 1000 ft
800 à 1500m
200 à 500 ft
< 800m
< 200 ft
Symboles :   Orages  Brouillard  Fortes neiges  Fortes précipitations  Vent > 20 kt
SIGMETs :   Divers  Orages  Givrage  Turbulence  Onde Orograph.  Cendres Volcan.






- Altitude de l'aérodrome : 53 ft
- Code IATA : HAM


EDDH - Hamburg

DERNIER METAR :
  • 170650Z 15005KT 7000 NSC 01/M00 Q1015 R88/710195 NOSIG

METARs EXPIRÉS :
  • 170620Z 15008KT 7000 NSC 00/M00 Q1014 R88/710195 NOSIG
  • 170550Z 13006KT 9000 2400NW BCFG NSC M00/M01 Q1014 NOSIG
  • 170520Z 15003KT CAVOK 00/M01 Q1013 NOSIG
  • 170450Z 13003KT CAVOK 00/M00 Q1013 NOSIG
  • 170420Z 16004KT CAVOK 00/M01 Q1013 NOSIG

TAF TAF EDDH
Valide du 17 à 06h jusqu'au 18 à 12h UTC


170500Z 1706/1812 14005KT CAVOK
PROB30
TEMPO 1706/1709 2500 BCFG
BECMG 1710/1712 04008KT
BECMG 1717/1720 3500 -RADZ OVC012
TEMPO 1719/1806 2500 -DZ BR BKN004
BECMG 1806/1809 11005KT 9999



MET'MAP, la Météo Aéronautique d'un coup d'oeil ! - Copyright ORBIFLY Décembre 2007 - Disclaimer

ORBIFLY MET'MAP TEAM :

Programmation & Développement : Alexandra Zaïnal
Conception & Développement : Baudouin d'Aumeries
Co-Programmation & Développement : Marc-Olivier Méhu
Soutien technique & logistique : Manuel Goepfert

Contact : metmap@orbifly.com




SOURCES & CREDITS :

   NOAA